ADDS METAR Data INFO
IDs: Format: Raw Decoded Include TAF

Data at: 0220 UTC 14 Dec 2017

KCPS 140153Z 33017G25KT 10SM CLR 07/M01 A2974 RMK AO2 PK WND 32027/0129 SLP073 T00721011
KCPS 140053Z 31011G21KT 10SM CLR 10/M02 A2969 RMK AO2 PK WND 31030/2355 SLP056 T01001017
KCPS 132353Z 31017G34KT 10SM CLR 11/M03 A2966 RMK AO2 PK WND 30040/2340 SLP047 T01111028 10144 20106 53029
KCPS 132253Z 32009KT 10SM CLR 11/M01 A2963 RMK AO2 PK WND 30032/2154 SLP034 T01111006
KCPS 132153Z 31027G37KT 10SM SCT065 14/M02 A2960 RMK AO2 PK WND 28039/2142 SLP025 T01391017
KCPS 132053Z 29018G30KT 10SM FEW065 14/M03 A2958 RMK AO2 PK WND 30035/2037 SLP018 T01441028 55010
KCPS 131953Z 27014G26KT 10SM CLR 14/M03 A2956 RMK AO2 PK WND 29028/1921 SLP011 T01441033
KCPS 131853Z 27018G25KT 10SM CLR 13/M04 A2957 RMK AO2 PK WND 26026/1822 SLP014 T01331039
KCPS 131753Z 27014G24KT 10SM CLR 11/M06 A2961 RMK AO2 PK WND 24032/1703 SLP029 T01111056 10111 21028 56017
KCPS 131653Z 24011G18KT 10SM CLR 09/M07 A2961 RMK AO2 SLP030 T00941067
KCPS 131553Z 22008G18KT 10SM CLR 06/M07 A2965 RMK AO2 PK WND 21026/1533 SLP043 T00611067
KCPS 131453Z 19011G19KT 10SM BKN110 04/M07 A2966 RMK AO2 PRESFR SLP046 T00391067 58050
KCPS 131353Z 17007KT 10SM CLR 01/M07 A2972 RMK AO2 SLP068 T00061072
KCPS 131253Z 19008KT 10SM CLR 00/M08 A2977 RMK AO2 SLP083 T00001083
KCPS 131153Z AUTO 17005KT 10SM CLR M03/M10 A2981 RMK AO2 PRESFR SLP098 T10281100 11006 21061 57046
KCPS 131053Z AUTO 19006KT 10SM CLR M01/M11 A2985 RMK AO2 SLP113 T10111111
KCPS 130953Z AUTO 19003KT 10SM CLR M02/M13 A2990 RMK AO2 SLP130 T10221128
KCPS 130853Z AUTO 00000KT 10SM CLR M04/M13 A2995 RMK AO2 SLP145 T10441133 58030
KCPS 130753Z AUTO 17003KT 10SM CLR M05/M13 A2998 RMK AO2 SLP155 T10501128
KCPS 130653Z AUTO 00000KT 10SM CLR M06/M13 A3001 RMK AO2 SLP166 T10561133
KCPS 130553Z AUTO 00000KT 10SM CLR M06/M13 A3004 RMK AO2 SLP175 T10611128 10006 21067 400561067 58021
KCPS 130453Z AUTO 00000KT 10SM CLR M06/M13 A3006 RMK AO2 SLP184 T10561128
KCPS 130353Z 22003KT 10SM CLR M03/M14 A3008 RMK AO2 SLP191 T10281139
KCPS 130253Z 23003KT 10SM CLR M02/M16 A3010 RMK AO2 SLP197 T10221161 58013
KCPS 130153Z 26003KT 10SM CLR M01/M17 A3012 RMK AO2 SLP202 T10111172
KCPS 130053Z 28005KT 10SM BKN110 M01/M18 A3013 RMK AO2 SLP207 T10061178
KCPS 122353Z 29006KT 10SM CLR M01/M18 A3014 RMK AO2 SLP210 T10061178 10028 21006 56007
KCPS 122253Z 29006KT 10SM CLR 01/M18 A3014 RMK AO2 SLP211 T00061183
KCPS 122153Z 30009KT 10SM CLR 02/M18 A3015 RMK AO2 SLP213 T00221178
KCPS 122053Z 30015KT 10SM CLR 02/M17 A3016 RMK AO2 SLP216 T00221167 56019
KCPS 121953Z 30016G19KT 10SM CLR 02/M16 A3016 RMK AO2 SLP217 T00221161
KCPS 121853Z 30015G20KT 10SM CLR 02/M14 A3019 RMK AO2 SLP226 T00221144
KCPS 121753Z 31011KT 10SM CLR 01/M12 A3022 RMK AO2 SLP234 T00111122 10017 21022 58010
KCPS 121653Z 32014KT 10SM CLR 01/M12 A3024 RMK AO2 SLP242 T00061117
KCPS 121553Z 30015KT 10SM CLR M01/M09 A3025 RMK AO2 SLP246 T10061089
KCPS 121453Z COR 32017KT 10SM SCT024 M01/M08 A3025 RMK AO2 SLP245 T10111083 51024